createdAt,value
2019-02-25T00:02:17.316Z,103068.44
2019-02-25T00:04:44.233Z,103072.24
2019-02-25T00:07:11.137Z,103071.95
2019-02-25T00:09:38.092Z,103072.42
2019-02-25T00:12:04.991Z,103066.87
2019-02-25T00:14:31.957Z,103060.12
2019-02-25T00:16:58.863Z,103063.66
2019-02-25T00:19:25.798Z,103060.36
2019-02-25T00:21:52.675Z,103060.88
2019-02-25T00:24:19.602Z,103049.55
2019-02-25T00:26:46.533Z,103053.17
2019-02-25T00:29:13.534Z,103049.75
2019-02-25T00:31:40.434Z,103047.37
2019-02-25T00:34:07.360Z,103046.36
2019-02-25T00:36:34.276Z,103040.34
2019-02-25T00:39:01.233Z,103041.84
2019-02-25T00:41:28.132Z,103050.56
2019-02-25T00:43:55.051Z,103045.15
2019-02-25T00:46:21.932Z,103051.16
2019-02-25T00:48:48.883Z,103049.31
2019-02-25T00:51:15.786Z,103053.73
2019-02-25T00:53:42.709Z,103044.66
2019-02-25T00:56:09.604Z,103040.98
2019-02-25T00:58:36.532Z,103040.85
2019-02-25T01:01:03.434Z,103044.56
2019-02-25T01:03:30.353Z,103043.95
2019-02-25T01:05:57.222Z,103040.39
2019-02-25T01:08:24.167Z,103041.45
2019-02-25T01:10:51.095Z,103039.72
2019-02-25T01:13:18.060Z,103045.87
2019-02-25T01:15:44.939Z,103045.45
2019-02-25T01:18:11.838Z,103050.63
2019-02-25T01:20:38.805Z,103045.09
2019-02-25T01:23:05.675Z,103040.42
2019-02-25T01:25:32.597Z,103035.63
2019-02-25T01:27:59.596Z,103028.94
2019-02-25T01:30:26.510Z,103041.66
2019-02-25T01:32:53.434Z,103034.39
2019-02-25T01:35:20.367Z,103030.51
2019-02-25T01:37:47.265Z,103028.29
2019-02-25T01:40:14.197Z,103025.63
2019-02-25T01:42:41.104Z,103027.05
2019-02-25T01:45:09.313Z,103015.97
2019-02-25T01:47:36.199Z,103021.88
2019-02-25T01:50:03.669Z,103022.75
2019-02-25T01:52:30.561Z,103015.37
2019-02-25T01:54:57.467Z,103007.48
2019-02-25T01:57:24.454Z,103011.02
2019-02-25T01:59:51.384Z,103010.53
2019-02-25T02:02:18.271Z,103011.08
2019-02-25T02:04:45.238Z,103005.22
2019-02-25T02:07:12.168Z,103007.61
2019-02-25T02:09:39.104Z,103015.97
2019-02-25T02:12:05.986Z,103022.16
2019-02-25T02:14:32.908Z,103013.94
2019-02-25T02:16:59.846Z,103019.92
2019-02-25T02:19:26.820Z,103024.08
2019-02-25T02:21:53.715Z,103024.08
2019-02-25T02:24:20.666Z,103017.48
2019-02-25T02:26:47.561Z,103016.59
2019-02-25T02:29:14.507Z,103016.92
2019-02-25T02:31:41.445Z,103017.00
2019-02-25T02:34:08.374Z,103017.53
2019-02-25T02:36:35.267Z,103019.70
2019-02-25T02:39:02.853Z,103013.47
2019-02-25T02:41:52.362Z,103008.09
2019-02-25T02:44:19.319Z,103007.20
2019-02-25T02:47:28.503Z,103010.72
2019-02-25T02:49:55.507Z,103012.57
2019-02-25T02:52:22.424Z,103013.84
2019-02-25T02:54:49.388Z,103012.80
2019-02-25T02:57:16.277Z,103017.67
2019-02-25T02:59:43.188Z,103022.13
2019-02-25T03:02:10.093Z,103023.02
2019-02-25T03:04:37.001Z,103023.27
2019-02-25T03:07:03.872Z,103014.41
2019-02-25T03:09:30.794Z,103017.73
2019-02-25T03:11:57.694Z,103016.38
2019-02-25T03:14:24.581Z,103016.20
2019-02-25T03:16:51.514Z,103004.05
2019-02-25T03:19:18.406Z,103001.06
2019-02-25T03:21:45.307Z,103010.95
2019-02-25T03:24:12.188Z,103008.23
2019-02-25T03:26:39.092Z,103004.95
2019-02-25T03:29:06.024Z,103012.63
2019-02-25T03:31:32.964Z,103008.97
2019-02-25T03:33:59.897Z,103016.37
2019-02-25T03:36:26.814Z,103011.57
2019-02-25T03:38:53.691Z,103020.77
2019-02-25T03:41:20.621Z,102966.89
2019-02-25T03:43:47.509Z,103018.14
2019-02-25T03:46:14.438Z,103020.00
2019-02-25T03:48:41.331Z,103017.27
2019-02-25T03:51:08.269Z,103024.06
2019-02-25T03:53:35.202Z,103030.92
2019-02-25T03:56:02.309Z,103032.55
2019-02-25T03:58:29.218Z,103031.58
2019-02-25T04:00:56.132Z,103031.67
2019-02-25T04:03:23.045Z,103033.06
2019-02-25T04:05:49.976Z,103035.58
2019-02-25T04:08:16.896Z,103035.73
2019-02-25T04:10:43.841Z,103034.79
2019-02-25T04:13:10.748Z,103036.55
2019-02-25T04:15:40.870Z,103041.70
2019-02-25T04:18:07.752Z,103045.92
2019-02-25T04:20:34.701Z,103047.43
2019-02-25T04:23:01.603Z,103042.64
2019-02-25T04:25:28.536Z,103046.83
2019-02-25T04:27:55.484Z,103052.45
2019-02-25T04:30:22.445Z,103041.31
2019-02-25T04:32:49.358Z,103044.81
2019-02-25T04:35:16.312Z,103033.92
2019-02-25T04:37:43.261Z,103029.23
2019-02-25T04:40:11.336Z,103026.08
2019-02-25T04:42:38.290Z,103034.34
2019-02-25T04:45:08.397Z,103033.93
2019-02-25T04:47:35.340Z,103033.87
2019-02-25T04:50:02.388Z,103037.14
2019-02-25T04:52:29.306Z,103043.78
2019-02-25T04:54:56.247Z,103040.11
2019-02-25T04:57:23.160Z,103044.16
2019-02-25T04:59:50.032Z,103042.05
2019-02-25T05:02:17.002Z,103044.28
2019-02-25T05:04:43.891Z,103041.89
2019-02-25T05:07:10.878Z,103051.73
2019-02-25T05:09:37.773Z,103047.73
2019-02-25T05:12:04.699Z,103055.44
2019-02-25T05:14:31.636Z,103052.61
2019-02-25T05:16:58.586Z,103049.78
2019-02-25T05:19:25.540Z,103054.32
2019-02-25T05:21:52.441Z,103048.39
2019-02-25T05:24:19.382Z,103041.10
2019-02-25T05:26:46.311Z,103038.38
2019-02-25T05:29:13.247Z,103034.50
2019-02-25T05:31:40.255Z,103030.48
2019-02-25T05:34:07.153Z,103035.64
2019-02-25T05:36:34.081Z,103039.81
2019-02-25T05:39:00.967Z,103044.19
2019-02-25T05:41:27.900Z,103042.23
2019-02-25T05:43:54.787Z,103042.23
2019-02-25T05:46:21.720Z,103044.00
2019-02-25T05:48:48.611Z,103042.30
2019-02-25T05:51:15.555Z,103052.70
2019-02-25T05:53:42.432Z,103051.89
2019-02-25T05:56:09.366Z,103052.86
2019-02-25T05:58:36.421Z,103060.86
2019-02-25T06:01:03.338Z,103063.77
2019-02-25T06:03:30.258Z,103062.15
2019-02-25T06:05:57.181Z,103063.83
2019-02-25T06:08:24.122Z,103064.06
2019-02-25T06:10:51.021Z,103060.78
2019-02-25T06:13:17.968Z,103060.30
2019-02-25T06:15:44.869Z,103049.52
2019-02-25T06:18:11.847Z,103056.10
2019-02-25T06:20:38.765Z,103060.28
2019-02-25T06:23:05.710Z,103062.05
2019-02-25T06:25:32.595Z,103055.79
2019-02-25T06:27:59.595Z,103044.05
2019-02-25T06:30:26.514Z,103044.29
2019-02-25T06:32:53.476Z,103047.27
2019-02-25T06:35:20.389Z,103046.78
2019-02-25T06:37:47.334Z,103043.71
2019-02-25T06:40:15.749Z,103047.59
2019-02-25T06:42:42.988Z,103044.52
2019-02-25T06:45:11.701Z,103052.16
2019-02-25T06:47:38.646Z,103063.80
2019-02-25T06:50:05.686Z,103075.26
2019-02-25T06:52:32.603Z,103066.33
2019-02-25T06:54:59.549Z,103062.89
2019-02-25T06:57:26.492Z,103069.22
2019-02-25T06:59:53.400Z,103026.33
2019-02-25T07:02:20.321Z,103075.83
2019-02-25T07:04:55.654Z,103077.86
2019-02-25T07:07:48.163Z,103073.48
2019-02-25T07:10:33.527Z,103074.13
2019-02-25T07:13:08.563Z,103070.56
2019-02-25T07:15:48.162Z,103068.73
2019-02-25T07:18:33.150Z,103072.80
2019-02-25T07:21:13.290Z,103072.96
2019-02-25T07:23:48.779Z,103071.20
2019-02-25T07:26:35.142Z,103071.20
2019-02-25T07:29:08.568Z,103072.30
2019-02-25T07:31:53.949Z,103068.15
2019-02-25T07:34:43.047Z,103074.27
2019-02-25T07:37:29.596Z,103084.13
2019-02-25T07:40:12.293Z,103086.09
2019-02-25T07:42:54.310Z,103088.11
2019-02-25T07:45:46.652Z,103084.27
2019-02-25T07:48:42.439Z,103084.32
2019-02-25T07:51:32.076Z,103086.48
2019-02-25T07:54:10.154Z,103094.77
2019-02-25T07:57:11.785Z,103105.39
2019-02-25T08:00:04.182Z,103106.64
2019-02-25T08:02:40.545Z,103104.97
2019-02-25T08:05:15.952Z,103115.63
2019-02-25T08:08:05.458Z,103120.61
2019-02-25T08:10:54.287Z,103120.14
2019-02-25T08:13:39.994Z,103116.08
2019-02-25T08:16:24.999Z,103118.23
2019-02-25T08:19:29.475Z,103111.81
2019-02-25T08:22:27.970Z,103116.62
2019-02-25T08:25:06.198Z,103124.23
2019-02-25T08:27:49.092Z,103118.39
2019-02-25T08:30:30.608Z,103122.63
2019-02-25T08:33:19.986Z,103126.38
2019-02-25T08:37:02.171Z,103129.13
2019-02-25T08:39:34.769Z,103131.42
2019-02-25T08:42:19.122Z,103125.84
2019-02-25T08:45:09.012Z,103136.75
2019-02-25T08:48:02.799Z,103134.22
2019-02-25T08:50:30.204Z,103141.34
2019-02-25T08:52:57.117Z,103144.23
2019-02-25T08:55:24.068Z,103154.17
2019-02-25T08:57:50.978Z,103157.61
2019-02-25T09:00:17.915Z,103170.33
2019-02-25T09:02:44.810Z,103160.28
2019-02-25T09:05:12.461Z,103153.53
2019-02-25T09:07:39.379Z,103155.22
2019-02-25T09:12:37.599Z,103141.80
2019-02-25T09:15:05.782Z,103143.98
2019-02-25T09:17:41.511Z,103146.74
2019-02-25T09:20:08.705Z,103145.92
2019-02-25T09:22:35.545Z,103140.22
2019-02-25T09:25:02.497Z,103145.20
2019-02-25T09:27:29.422Z,103145.98
2019-02-25T09:29:56.386Z,103150.48
2019-02-25T09:32:23.301Z,103155.41
2019-02-25T09:34:50.248Z,103149.64
2019-02-25T09:37:17.147Z,103144.38
2019-02-25T09:39:44.089Z,103142.14
2019-02-25T09:42:11.139Z,103154.59
2019-02-25T09:44:38.126Z,103144.89
2019-02-25T09:47:05.238Z,103144.05
2019-02-25T09:49:32.446Z,103140.77
2019-02-25T09:51:59.664Z,103138.83
2019-02-25T09:54:26.609Z,103140.58
2019-02-25T09:56:53.663Z,103139.66
2019-02-25T09:59:20.564Z,103135.42
2019-02-25T10:01:47.509Z,103133.69
2019-02-25T10:04:14.423Z,103128.34
2019-02-25T10:06:41.373Z,103135.83
2019-02-25T10:09:08.283Z,103126.85
2019-02-25T10:11:35.330Z,103137.77
2019-02-25T10:14:02.250Z,103128.78
2019-02-25T10:16:29.183Z,103125.52
2019-02-25T10:18:56.097Z,103124.47
2019-02-25T10:21:23.042Z,103121.37
2019-02-25T10:23:49.971Z,103123.33
2019-02-25T10:26:16.900Z,103117.58
2019-02-25T10:28:43.819Z,103122.06
2019-02-25T10:31:12.727Z,103119.19
2019-02-25T10:36:07.278Z,103115.06
2019-02-25T10:38:34.193Z,103111.88
2019-02-25T10:41:01.128Z,103113.00
2019-02-25T10:43:29.550Z,103115.70
2019-02-25T10:45:56.900Z,103119.73
2019-02-25T10:48:25.759Z,103117.64
2019-02-25T10:50:56.129Z,103120.83
2019-02-25T10:53:22.105Z,103115.28
2019-02-25T10:55:59.942Z,103110.42
2019-02-25T10:58:27.481Z,103106.17
2019-02-25T11:00:55.700Z,103107.45
2019-02-25T11:03:22.666Z,103102.33
2019-02-25T11:05:49.575Z,103100.59
2019-02-25T11:08:18.832Z,103106.30
2019-02-25T11:10:53.211Z,103111.55
2019-02-25T11:13:20.913Z,103093.67
2019-02-25T11:15:48.370Z,103092.37
2019-02-25T11:18:17.461Z,103086.75
2019-02-25T11:20:44.296Z,103084.13
2019-02-25T11:23:12.829Z,103074.50
2019-02-25T11:25:40.065Z,103083.72
2019-02-25T11:28:09.210Z,103071.36
2019-02-25T11:30:36.075Z,103069.13
2019-02-25T11:33:03.068Z,103067.00
2019-02-25T11:35:29.986Z,103058.98
2019-02-25T11:37:58.972Z,103054.06
2019-02-25T11:40:26.479Z,103052.36
2019-02-25T11:42:54.691Z,103049.95
2019-02-25T11:45:21.599Z,103045.84
2019-02-25T11:47:48.677Z,103043.28
2019-02-25T11:50:15.796Z,103005.55
2019-02-25T11:52:42.738Z,103041.53
2019-02-25T11:55:10.221Z,103031.52
2019-02-25T11:57:37.166Z,103022.36
2019-02-25T12:00:10.783Z,103012.38
2019-02-25T12:02:37.769Z,103005.25
2019-02-25T12:05:05.450Z,103002.84
2019-02-25T12:07:32.398Z,103002.08
2019-02-25T12:09:59.314Z,102999.68
2019-02-25T12:12:26.463Z,102997.09
2019-02-25T12:14:53.409Z,102994.14
2019-02-25T12:17:20.359Z,102977.92
2019-02-25T12:19:47.330Z,102971.55
2019-02-25T12:22:14.533Z,102962.53
2019-02-25T12:24:41.439Z,102963.73
2019-02-25T12:27:08.480Z,102961.95
2019-02-25T12:29:35.526Z,102963.03
2019-02-25T12:32:02.652Z,102950.77
2019-02-25T12:34:29.623Z,102943.45
2019-02-25T12:36:56.580Z,102937.02
2019-02-25T12:39:23.519Z,102937.58
2019-02-25T12:41:50.427Z,102933.98
2019-02-25T12:44:17.589Z,102930.41
2019-02-25T12:46:44.623Z,102922.86
2019-02-25T12:49:11.575Z,102930.36
2019-02-25T12:51:38.484Z,102931.80
2019-02-25T12:54:05.554Z,102937.59
2019-02-25T12:56:32.556Z,102921.63
2019-02-25T12:58:59.489Z,102923.00
2019-02-25T13:01:26.448Z,102914.08
2019-02-25T13:03:53.808Z,102921.75
2019-02-25T13:06:20.749Z,102925.45
2019-02-25T13:08:47.683Z,102921.73
2019-02-25T13:11:14.615Z,102920.17
2019-02-25T13:13:41.543Z,102912.98
2019-02-25T13:16:08.461Z,102917.34
2019-02-25T13:18:35.450Z,102910.61
2019-02-25T13:21:02.354Z,102911.03
2019-02-25T13:23:29.429Z,102907.68
2019-02-25T13:25:56.342Z,102916.41
2019-02-25T13:28:24.177Z,102909.08
2019-02-25T13:30:52.104Z,102907.83
2019-02-25T13:33:19.044Z,102903.42
2019-02-25T13:35:45.977Z,102899.65
2019-02-25T13:38:13.624Z,102899.33
2019-02-25T13:40:40.537Z,102896.73
2019-02-25T13:43:07.474Z,102899.73
2019-02-25T13:45:34.429Z,102898.58
2019-02-25T13:48:01.353Z,102880.16
2019-02-25T13:50:28.319Z,102898.19
2019-02-25T13:52:55.242Z,102892.42
2019-02-25T13:55:22.217Z,102886.57
2019-02-25T13:57:49.196Z,102887.09
2019-02-25T14:00:17.644Z,102890.77
2019-02-25T14:02:45.006Z,102890.81
2019-02-25T14:05:11.981Z,102895.13
2019-02-25T14:07:38.902Z,102901.28
2019-02-25T14:10:07.644Z,102900.32
2019-02-25T14:12:34.563Z,102895.17
2019-02-25T14:15:01.507Z,102903.77
2019-02-25T14:17:28.513Z,102896.52
2019-02-25T14:19:55.663Z,102900.18
2019-02-25T14:22:22.575Z,102900.84
2019-02-25T14:24:49.624Z,102899.45
2019-02-25T14:27:16.538Z,102893.66
2019-02-25T14:29:44.664Z,102894.17
2019-02-25T14:32:15.284Z,102893.64
2019-02-25T14:34:44.458Z,102891.72
2019-02-25T14:37:12.911Z,102882.06
2019-02-25T14:39:40.869Z,102882.47
2019-02-25T14:42:09.331Z,102889.60
2019-02-25T14:44:38.142Z,102889.07
2019-02-25T14:47:19.300Z,102886.95
2019-02-25T14:49:35.228Z,102884.95
2019-02-25T14:52:03.579Z,102889.66
2019-02-25T14:54:32.264Z,102894.02
2019-02-25T14:56:59.457Z,102890.52
2019-02-25T14:59:26.400Z,102892.19
2019-02-25T15:01:53.339Z,102884.48
2019-02-25T15:04:20.248Z,102878.48
2019-02-25T15:06:49.095Z,102878.83
2019-02-25T15:09:16.324Z,102874.67
2019-02-25T15:11:43.360Z,102879.65
2019-02-25T15:14:11.123Z,102879.70
2019-02-25T15:16:39.149Z,102880.70
2019-02-25T15:19:06.056Z,102878.77
2019-02-25T15:21:33.300Z,102883.05
2019-02-25T15:24:02.557Z,102889.14
2019-02-25T15:26:30.261Z,102884.31
2019-02-25T15:28:58.638Z,102879.80
2019-02-25T15:31:26.144Z,102889.42
2019-02-25T15:33:53.160Z,102886.11
2019-02-25T15:36:20.523Z,102894.62
2019-02-25T15:38:48.958Z,102882.22
2019-02-25T15:41:15.908Z,102882.17
2019-02-25T15:43:42.815Z,102878.67
2019-02-25T15:46:10.410Z,102884.09
2019-02-25T15:48:39.800Z,102883.41
2019-02-25T15:51:07.630Z,102884.47
2019-02-25T15:53:34.543Z,102886.25
2019-02-25T15:56:03.510Z,102885.77
2019-02-25T15:58:30.492Z,102883.77
2019-02-25T16:00:57.419Z,102884.64
2019-02-25T16:03:24.638Z,102880.84
2019-02-25T16:05:54.484Z,102878.53
2019-02-25T16:08:21.267Z,102881.33
2019-02-25T16:10:51.153Z,102881.94
2019-02-25T16:13:18.177Z,102871.97
2019-02-25T16:15:45.107Z,102864.88
2019-02-25T16:18:14.060Z,102867.63
2019-02-25T16:20:45.950Z,102869.66
2019-02-25T16:23:11.113Z,102870.02
2019-02-25T16:25:39.953Z,102869.45
2019-02-25T16:28:08.152Z,102855.58
2019-02-25T16:30:36.369Z,102861.00
2019-02-25T16:33:04.850Z,102855.80
2019-02-25T16:35:32.123Z,102852.81
2019-02-25T16:38:00.329Z,102857.94
2019-02-25T16:40:29.139Z,102857.64
2019-02-25T16:42:59.388Z,102861.75
2019-02-25T16:45:28.532Z,102860.94
2019-02-25T16:47:54.463Z,102854.13
2019-02-25T16:50:23.173Z,102856.87
2019-02-25T16:52:50.242Z,102862.65
2019-02-25T16:55:23.384Z,102863.13
2019-02-25T16:57:51.135Z,102870.27
2019-02-25T17:00:18.067Z,102869.03
2019-02-25T17:02:45.066Z,102867.43
2019-02-25T17:05:12.194Z,102862.66
2019-02-25T17:07:40.490Z,102865.39
2019-02-25T17:10:10.168Z,102835.66
2019-02-25T17:12:37.226Z,102871.59
2019-02-25T17:15:06.026Z,102876.44
2019-02-25T17:17:33.007Z,102872.05
2019-02-25T17:19:59.980Z,102875.58
2019-02-25T17:22:26.980Z,102869.91
2019-02-25T17:24:54.283Z,102873.84
2019-02-25T17:27:22.756Z,102874.28
2019-02-25T17:29:51.253Z,102880.40
2019-02-25T17:32:19.406Z,102882.58
2019-02-25T17:34:47.383Z,102876.85
2019-02-25T17:37:14.823Z,102882.09
2019-02-25T17:39:42.801Z,102886.44
2019-02-25T17:42:10.165Z,102883.73
2019-02-25T17:44:38.770Z,102889.35
2019-02-25T17:47:06.651Z,102890.19
2019-02-25T17:49:35.845Z,102887.98
2019-02-25T17:52:03.523Z,102890.08
2019-02-25T17:54:31.156Z,102890.52
2019-02-25T17:56:59.314Z,102890.84
2019-02-25T17:59:27.305Z,102889.88
2019-02-25T18:01:54.779Z,102890.69
2019-02-25T18:04:21.720Z,102889.34
2019-02-25T18:06:48.676Z,102888.94
2019-02-25T18:09:16.423Z,102894.55
2019-02-25T18:11:45.456Z,102900.97
2019-02-25T18:14:14.977Z,102894.34
2019-02-25T18:16:46.120Z,102897.33
2019-02-25T18:19:13.895Z,102897.73
2019-02-25T18:21:42.988Z,102888.08
2019-02-25T18:24:12.225Z,102885.42
2019-02-25T18:26:38.748Z,102883.05
2019-02-25T18:29:07.458Z,102882.06
2019-02-25T18:31:34.631Z,102882.76
2019-02-25T18:34:01.797Z,102882.36
2019-02-25T18:36:29.428Z,102879.27
2019-02-25T18:38:57.658Z,102876.53
2019-02-25T18:41:25.432Z,102871.23
2019-02-25T18:43:53.622Z,102864.73
2019-02-25T18:46:21.222Z,102860.69
2019-02-25T18:48:51.226Z,102866.27
2019-02-25T18:51:18.460Z,102854.83
2019-02-25T18:53:45.426Z,102859.52
2019-02-25T18:56:14.154Z,102861.70
2019-02-25T18:58:41.663Z,102858.73
2019-02-25T19:01:11.055Z,102861.53
2019-02-25T19:03:38.410Z,102861.05
2019-02-25T19:06:05.527Z,102865.30
2019-02-25T19:08:32.511Z,102865.15
2019-02-25T19:10:59.425Z,102876.19
2019-02-25T19:13:27.688Z,102877.73
2019-02-25T19:15:56.895Z,102877.92
2019-02-25T19:18:24.098Z,102889.41
2019-02-25T19:20:51.200Z,102884.59
2019-02-25T19:23:18.470Z,102883.82
2019-02-25T19:25:45.411Z,102894.64
2019-02-25T19:28:18.753Z,102899.80
2019-02-25T19:30:43.674Z,102911.77
2019-02-25T19:33:11.521Z,102908.63
2019-02-25T19:35:40.706Z,102899.91
2019-02-25T19:38:08.353Z,102906.20
2019-02-25T19:40:40.262Z,102906.20
2019-02-25T19:43:06.017Z,102915.80
2019-02-25T19:45:34.314Z,102916.31
2019-02-25T19:48:02.927Z,102904.91
2019-02-25T19:50:32.367Z,102903.94
2019-02-25T19:53:02.483Z,102904.72
2019-02-25T19:55:28.993Z,102887.30
2019-02-25T19:57:56.232Z,102895.03
2019-02-25T20:00:27.633Z,102891.54
2019-02-25T20:03:04.781Z,102888.91
2019-02-25T20:05:24.497Z,102880.72
2019-02-25T20:07:51.408Z,102881.20
2019-02-25T20:10:18.778Z,102870.06
2019-02-25T20:12:46.053Z,102863.48
2019-02-25T20:15:18.167Z,102854.16
2019-02-25T20:17:46.750Z,102859.73
2019-02-25T20:20:15.042Z,102860.66
2019-02-25T20:22:42.136Z,102861.29
2019-02-25T20:25:10.764Z,102859.16
2019-02-25T20:27:38.645Z,102854.20
2019-02-25T20:30:08.588Z,102806.23
2019-02-25T20:32:36.497Z,102839.96
2019-02-25T20:35:05.399Z,102841.21
2019-02-25T20:37:33.840Z,102837.06
2019-02-25T20:40:01.331Z,102841.38
2019-02-25T20:42:28.646Z,102840.90
2019-02-25T20:44:57.517Z,102834.97
2019-02-25T20:47:25.910Z,102829.78
2019-02-25T20:49:55.655Z,102827.23
2019-02-25T20:52:22.248Z,102834.47
2019-02-25T20:54:49.644Z,102828.22
2019-02-25T20:57:18.532Z,102823.16
2019-02-25T20:59:47.159Z,102818.73
2019-02-25T21:02:16.265Z,102829.55
2019-02-25T21:04:43.879Z,102834.97
2019-02-25T21:07:13.205Z,102836.67
2019-02-25T21:09:42.155Z,102850.82
2019-02-25T21:12:10.456Z,102850.39
2019-02-25T21:14:40.294Z,102857.69
2019-02-25T21:17:07.512Z,102859.30
2019-02-25T21:19:36.135Z,102854.61
2019-02-25T21:22:04.881Z,102851.45
2019-02-25T21:24:33.629Z,102850.80
2019-02-25T21:27:03.585Z,102850.49
2019-02-25T21:29:31.858Z,102860.97
2019-02-25T21:31:59.483Z,102861.66
2019-02-25T21:34:28.607Z,102855.93
2019-02-25T21:36:56.282Z,102854.63
2019-02-25T21:39:24.548Z,102847.56
2019-02-25T21:41:51.495Z,102850.86
2019-02-25T21:44:19.480Z,102853.48
2019-02-25T21:46:51.866Z,102851.16
2019-02-25T21:49:16.560Z,102855.05
2019-02-25T21:51:43.823Z,102855.27
2019-02-25T21:54:12.658Z,102859.50
2019-02-25T21:56:39.587Z,102865.42
2019-02-25T21:59:08.276Z,102860.75
2019-02-25T22:01:36.870Z,102868.54
2019-02-25T22:04:04.199Z,102868.09
2019-02-25T22:06:33.122Z,102868.58
2019-02-25T22:09:00.767Z,102858.62
2019-02-25T22:11:28.868Z,102857.00
2019-02-25T22:13:55.799Z,102859.02
2019-02-25T22:16:23.576Z,102859.27
2019-02-25T22:18:52.052Z,102860.37
2019-02-25T22:21:21.196Z,102860.91
2019-02-25T22:23:49.471Z,102861.53
2019-02-25T22:26:17.103Z,102863.91
2019-02-25T22:28:44.042Z,102863.41
2019-02-25T22:31:13.380Z,102858.52
2019-02-25T22:33:39.949Z,102856.87
2019-02-25T22:36:06.902Z,102858.25
2019-02-25T22:38:33.825Z,102860.17
2019-02-25T22:41:02.275Z,102856.34
2019-02-25T22:43:29.403Z,102855.27
2019-02-25T22:45:59.904Z,102851.98
2019-02-25T22:48:25.178Z,102859.19
2019-02-25T22:50:55.323Z,102852.39
2019-02-25T22:53:20.904Z,102844.72
2019-02-25T22:55:49.933Z,102841.99
2019-02-25T22:58:17.145Z,102837.23
2019-02-25T23:00:53.273Z,102829.13
2019-02-25T23:03:22.640Z,102831.00
2019-02-25T23:05:50.874Z,102829.93
2019-02-25T23:08:20.677Z,102833.55
2019-02-25T23:10:49.235Z,102836.83
2019-02-25T23:13:15.785Z,102834.55
2019-02-25T23:15:44.686Z,102835.30
2019-02-25T23:18:13.894Z,102835.38
2019-02-25T23:20:40.352Z,102841.78
2019-02-25T23:23:07.262Z,102833.64
2019-02-25T23:25:34.239Z,102830.18
2019-02-25T23:28:02.280Z,102832.98
2019-02-25T23:30:29.328Z,102824.48
2019-02-25T23:32:56.240Z,102823.94
2019-02-25T23:35:25.296Z,102828.21
2019-02-25T23:37:54.499Z,102836.72
2019-02-25T23:40:20.950Z,102828.16
2019-02-25T23:42:49.100Z,102839.48
2019-02-25T23:45:18.389Z,102831.59
2019-02-25T23:47:45.111Z,102838.69
2019-02-25T23:50:13.729Z,102838.84
2019-02-25T23:52:40.767Z,102848.55
2019-02-25T23:55:08.002Z,102836.93
2019-02-25T23:57:35.376Z,102839.45
